sensor_id;sensor_type;location;lat;lon;timestamp;pressure;altitude;pressure_sealevel;temperature;humidity
7660;BME280;3872;47.902;8.162;2024-01-27T00:01:36;93347.63;;;6.86;100.00
7660;BME280;3872;47.902;8.162;2024-01-27T00:04:04;93353.09;;;7.30;97.84
7660;BME280;3872;47.902;8.162;2024-01-27T00:06:33;93347.47;;;7.38;96.91
7660;BME280;3872;47.902;8.162;2024-01-27T00:09:00;93350.00;;;7.50;94.98
7660;BME280;3872;47.902;8.162;2024-01-27T00:11:30;93354.44;;;7.16;100.00
7660;BME280;3872;47.902;8.162;2024-01-27T00:13:57;93353.72;;;7.20;98.55
7660;BME280;3872;47.902;8.162;2024-01-27T00:16:28;93358.41;;;7.35;95.62
7660;BME280;3872;47.902;8.162;2024-01-27T00:19:00;93354.41;;;7.32;96.12
7660;BME280;3872;47.902;8.162;2024-01-27T00:21:51;93359.66;;;7.16;98.87
7660;BME280;3872;47.902;8.162;2024-01-27T00:24:19;93356.13;;;6.93;100.00
7660;BME280;3872;47.902;8.162;2024-01-27T00:26:49;93354.81;;;6.79;100.00
7660;BME280;3872;47.902;8.162;2024-01-27T00:29:18;93349.75;;;6.89;100.00
7660;BME280;3872;47.902;8.162;2024-01-27T00:31:45;93357.88;;;7.04;100.00
7660;BME280;3872;47.902;8.162;2024-01-27T00:34:14;93350.09;;;6.93;100.00
7660;BME280;3872;47.902;8.162;2024-01-27T00:36:43;93357.66;;;7.06;99.39
7660;BME280;3872;47.902;8.162;2024-01-27T00:39:14;93367.38;;;6.25;100.00
7660;BME280;3872;47.902;8.162;2024-01-27T00:41:44;93368.22;;;6.83;100.00
7660;BME280;3872;47.902;8.162;2024-01-27T00:44:19;93356.22;;;6.98;99.80
7660;BME280;3872;47.902;8.162;2024-01-27T00:46:50;93365.25;;;6.11;100.00
7660;BME280;3872;47.902;8.162;2024-01-27T00:49:19;93356.66;;;6.79;100.00
7660;BME280;3872;47.902;8.162;2024-01-27T00:51:52;93348.59;;;6.97;100.00
7660;BME280;3872;47.902;8.162;2024-01-27T00:54:25;93356.03;;;6.88;100.00
7660;BME280;3872;47.902;8.162;2024-01-27T00:56:55;93361.03;;;6.21;100.00
7660;BME280;3872;47.902;8.162;2024-01-27T00:59:23;93363.66;;;5.98;100.00
7660;BME280;3872;47.902;8.162;2024-01-27T01:01:57;93359.34;;;6.55;100.00
7660;BME280;3872;47.902;8.162;2024-01-27T01:04:29;93359.47;;;6.60;100.00
7660;BME280;3872;47.902;8.162;2024-01-27T01:06:57;93356.41;;;6.80;100.00
7660;BME280;3872;47.902;8.162;2024-01-27T01:09:32;93362.03;;;6.72;100.00
7660;BME280;3872;47.902;8.162;2024-01-27T01:11:59;93358.84;;;6.18;100.00
7660;BME280;3872;47.902;8.162;2024-01-27T01:14:29;93366.97;;;6.57;100.00
7660;BME280;3872;47.902;8.162;2024-01-27T01:17:02;93365.94;;;6.58;100.00
7660;BME280;3872;47.902;8.162;2024-01-27T01:19:32;93371.84;;;6.25;100.00
7660;BME280;3872;47.902;8.162;2024-01-27T01:22:14;93359.06;;;6.68;100.00
7660;BME280;3872;47.902;8.162;2024-01-27T01:24:43;93372.19;;;6.17;100.00
7660;BME280;3872;47.902;8.162;2024-01-27T01:27:11;93382.03;;;6.38;100.00
7660;BME280;3872;47.902;8.162;2024-01-27T01:29:38;93381.03;;;6.67;100.00
7660;BME280;3872;47.902;8.162;2024-01-27T01:32:10;93381.53;;;6.53;100.00
7660;BME280;3872;47.902;8.162;2024-01-27T01:34:42;93384.19;;;6.69;98.72
7660;BME280;3872;47.902;8.162;2024-01-27T01:37:10;93381.63;;;6.58;97.17
7660;BME280;3872;47.902;8.162;2024-01-27T01:39:39;93380.22;;;6.27;100.00
7660;BME280;3872;47.902;8.162;2024-01-27T01:42:12;93388.97;;;5.39;100.00
7660;BME280;3872;47.902;8.162;2024-01-27T01:44:43;93387.25;;;4.92;100.00
7660;BME280;3872;47.902;8.162;2024-01-27T01:47:11;93387.78;;;5.88;100.00
7660;BME280;3872;47.902;8.162;2024-01-27T01:50:23;93395.94;;;5.92;100.00
7660;BME280;3872;47.902;8.162;2024-01-27T01:52:38;93392.41;;;5.75;100.00
7660;BME280;3872;47.902;8.162;2024-01-27T01:55:13;93391.81;;;5.84;100.00
7660;BME280;3872;47.902;8.162;2024-01-27T01:57:49;93393.75;;;6.12;100.00
7660;BME280;3872;47.902;8.162;2024-01-27T02:00:17;93388.69;;;5.94;99.98
7660;BME280;3872;47.902;8.162;2024-01-27T02:02:45;93388.63;;;5.71;100.00
7660;BME280;3872;47.902;8.162;2024-01-27T02:05:20;93394.44;;;5.61;100.00
7660;BME280;3872;47.902;8.162;2024-01-27T02:07:53;93395.13;;;5.80;100.00
7660;BME280;3872;47.902;8.162;2024-01-27T02:10:29;93403.66;;;5.99;100.00
7660;BME280;3872;47.902;8.162;2024-01-27T02:13:02;93407.56;;;5.55;100.00
7660;BME280;3872;47.902;8.162;2024-01-27T02:15:30;93402.25;;;5.84;100.00
7660;BME280;3872;47.902;8.162;2024-01-27T02:18:05;93399.94;;;5.95;100.00
7660;BME280;3872;47.902;8.162;2024-01-27T02:20:38;93403.69;;;5.22;100.00
7660;BME280;3872;47.902;8.162;2024-01-27T02:23:10;93410.72;;;4.07;100.00
7660;BME280;3872;47.902;8.162;2024-01-27T02:25:43;93412.69;;;4.96;100.00
7660;BME280;3872;47.902;8.162;2024-01-27T02:28:23;93418.25;;;4.15;100.00
7660;BME280;3872;47.902;8.162;2024-01-27T02:30:51;93421.00;;;4.20;100.00
7660;BME280;3872;47.902;8.162;2024-01-27T02:33:18;93429.19;;;4.24;100.00
7660;BME280;3872;47.902;8.162;2024-01-27T02:35:45;93416.41;;;4.70;100.00
7660;BME280;3872;47.902;8.162;2024-01-27T02:38:14;93419.47;;;4.67;100.00
7660;BME280;3872;47.902;8.162;2024-01-27T02:40:45;93414.00;;;4.39;100.00
7660;BME280;3872;47.902;8.162;2024-01-27T02:43:13;93413.16;;;3.84;100.00
7660;BME280;3872;47.902;8.162;2024-01-27T02:45:40;93409.38;;;3.62;100.00
7660;BME280;3872;47.902;8.162;2024-01-27T02:48:16;93397.66;;;5.22;100.00
7660;BME280;3872;47.902;8.162;2024-01-27T02:50:45;93408.63;;;5.65;100.00
7660;BME280;3872;47.902;8.162;2024-01-27T02:53:12;93397.84;;;5.85;100.00
7660;BME280;3872;47.902;8.162;2024-01-27T02:55:44;93406.44;;;5.39;100.00
7660;BME280;3872;47.902;8.162;2024-01-27T02:58:17;93410.44;;;5.11;100.00
7660;BME280;3872;47.902;8.162;2024-01-27T03:00:52;93402.88;;;5.22;100.00
7660;BME280;3872;47.902;8.162;2024-01-27T03:03:27;93410.03;;;5.26;100.00
7660;BME280;3872;47.902;8.162;2024-01-27T03:05:57;93414.59;;;5.42;100.00
7660;BME280;3872;47.902;8.162;2024-01-27T03:08:24;93417.25;;;5.12;100.00
7660;BME280;3872;47.902;8.162;2024-01-27T03:10:53;93421.31;;;5.38;99.07
7660;BME280;3872;47.902;8.162;2024-01-27T03:13:21;93421.59;;;5.19;100.00
7660;BME280;3872;47.902;8.162;2024-01-27T03:15:52;93425.34;;;5.23;100.00
7660;BME280;3872;47.902;8.162;2024-01-27T03:18:21;93433.47;;;4.85;100.00
7660;BME280;3872;47.902;8.162;2024-01-27T03:20:52;93435.50;;;4.16;100.00
7660;BME280;3872;47.902;8.162;2024-01-27T03:23:19;93440.06;;;3.28;100.00
7660;BME280;3872;47.902;8.162;2024-01-27T03:25:47;93437.44;;;3.78;100.00
7660;BME280;3872;47.902;8.162;2024-01-27T03:28:17;93435.50;;;5.01;100.00
7660;BME280;3872;47.902;8.162;2024-01-27T03:30:44;93434.19;;;4.92;100.00
7660;BME280;3872;47.902;8.162;2024-01-27T03:33:23;93435.41;;;5.19;100.00
7660;BME280;3872;47.902;8.162;2024-01-27T03:35:53;93440.19;;;5.10;100.00
7660;BME280;3872;47.902;8.162;2024-01-27T03:38:28;93436.81;;;5.33;100.00
7660;BME280;3872;47.902;8.162;2024-01-27T03:41:03;93442.91;;;4.86;100.00
7660;BME280;3872;47.902;8.162;2024-01-27T03:43:33;93443.22;;;5.07;100.00
7660;BME280;3872;47.902;8.162;2024-01-27T03:46:04;93435.91;;;5.28;100.00
7660;BME280;3872;47.902;8.162;2024-01-27T03:48:38;93438.44;;;4.56;100.00
7660;BME280;3872;47.902;8.162;2024-01-27T03:51:06;93436.13;;;3.93;100.00
7660;BME280;3872;47.902;8.162;2024-01-27T03:53:40;93437.16;;;4.11;100.00
7660;BME280;3872;47.902;8.162;2024-01-27T03:56:11;93430.44;;;4.88;100.00
7660;BME280;3872;47.902;8.162;2024-01-27T03:58:40;93434.41;;;4.90;100.00
7660;BME280;3872;47.902;8.162;2024-01-27T04:01:10;93431.66;;;5.03;100.00
7660;BME280;3872;47.902;8.162;2024-01-27T04:03:37;93435.41;;;5.07;100.00
7660;BME280;3872;47.902;8.162;2024-01-27T04:06:05;93442.63;;;5.05;100.00
7660;BME280;3872;47.902;8.162;2024-01-27T04:08:49;93448.44;;;4.59;100.00
7660;BME280;3872;47.902;8.162;2024-01-27T04:11:20;93455.31;;;4.36;100.00
7660;BME280;3872;47.902;8.162;2024-01-27T04:13:56;93453.13;;;4.69;100.00
7660;BME280;3872;47.902;8.162;2024-01-27T04:16:28;93455.13;;;5.03;100.00
7660;BME280;3872;47.902;8.162;2024-01-27T04:18:59;93462.72;;;4.57;100.00
7660;BME280;3872;47.902;8.162;2024-01-27T04:21:34;93462.72;;;4.57;100.00
7660;BME280;3872;47.902;8.162;2024-01-27T04:24:07;93474.06;;;4.62;100.00
7660;BME280;3872;47.902;8.162;2024-01-27T04:26:41;93468.75;;;4.39;100.00
7660;BME280;3872;47.902;8.162;2024-01-27T04:29:11;93460.88;;;4.94;100.00
7660;BME280;3872;47.902;8.162;2024-01-27T04:31:47;93472.28;;;5.11;99.94
7660;BME280;3872;47.902;8.162;2024-01-27T04:34:20;93476.72;;;4.92;100.00
7660;BME280;3872;47.902;8.162;2024-01-27T04:36:47;93469.28;;;4.96;100.00
7660;BME280;3872;47.902;8.162;2024-01-27T04:39:15;93470.09;;;4.78;100.00
7660;BME280;3872;47.902;8.162;2024-01-27T04:41:42;93475.38;;;4.71;100.00
7660;BME280;3872;47.902;8.162;2024-01-27T04:44:11;93478.09;;;3.79;100.00
7660;BME280;3872;47.902;8.162;2024-01-27T04:46:43;93467.00;;;4.51;100.00
7660;BME280;3872;47.902;8.162;2024-01-27T04:49:15;93471.00;;;5.02;100.00
7660;BME280;3872;47.902;8.162;2024-01-27T04:51:53;93472.94;;;5.06;100.00
7660;BME280;3872;47.902;8.162;2024-01-27T04:54:26;93484.88;;;4.66;100.00
7660;BME280;3872;47.902;8.162;2024-01-27T04:56:53;93485.81;;;4.71;100.00
7660;BME280;3872;47.902;8.162;2024-01-27T04:59:25;93482.16;;;4.91;100.00
7660;BME280;3872;47.902;8.162;2024-01-27T05:01:52;93466.88;;;4.94;100.00
7660;BME280;3872;47.902;8.162;2024-01-27T05:04:32;93470.00;;;5.03;100.00
7660;BME280;3872;47.902;8.162;2024-01-27T05:07:02;93465.41;;;4.98;100.00
7660;BME280;3872;47.902;8.162;2024-01-27T05:09:36;93473.94;;;4.57;100.00
7660;BME280;3872;47.902;8.162;2024-01-27T05:12:14;93475.47;;;4.65;100.00
7660;BME280;3872;47.902;8.162;2024-01-27T05:15:04;93478.00;;;4.71;100.00
7660;BME280;3872;47.902;8.162;2024-01-27T05:17:37;93484.59;;;4.38;100.00
7660;BME280;3872;47.902;8.162;2024-01-27T05:20:07;93479.94;;;4.58;100.00
7660;BME280;3872;47.902;8.162;2024-01-27T05:22:35;93482.13;;;4.61;100.00
7660;BME280;3872;47.902;8.162;2024-01-27T05:25:15;93475.47;;;4.65;100.00
7660;BME280;3872;47.902;8.162;2024-01-27T05:27:48;93479.16;;;4.57;100.00
7660;BME280;3872;47.902;8.162;2024-01-27T05:30:21;93483.28;;;4.65;100.00
7660;BME280;3872;47.902;8.162;2024-01-27T05:32:51;93466.69;;;4.41;100.00
7660;BME280;3872;47.902;8.162;2024-01-27T05:35:18;93460.19;;;4.68;100.00
7660;BME280;3872;47.902;8.162;2024-01-27T05:37:45;93463.56;;;4.69;100.00
7660;BME280;3872;47.902;8.162;2024-01-27T05:40:23;93471.56;;;3.94;100.00
7660;BME280;3872;47.902;8.162;2024-01-27T05:42:50;93469.69;;;4.45;100.00
7660;BME280;3872;47.902;8.162;2024-01-27T05:45:25;93474.53;;;4.59;100.00
7660;BME280;3872;47.902;8.162;2024-01-27T05:48:20;93487.84;;;2.51;100.00
7660;BME280;3872;47.902;8.162;2024-01-27T05:50:57;93485.00;;;3.91;100.00
7660;BME280;3872;47.902;8.162;2024-01-27T05:53:27;93486.72;;;3.79;100.00
7660;BME280;3872;47.902;8.162;2024-01-27T05:55:55;93489.56;;;4.21;100.00
7660;BME280;3872;47.902;8.162;2024-01-27T05:58:32;93486.19;;;4.39;100.00
7660;BME280;3872;47.902;8.162;2024-01-27T06:03:08;93489.19;;;4.17;100.00
7660;BME280;3872;47.902;8.162;2024-01-27T06:04:04;93489.53;;;3.78;100.00
7660;BME280;3872;47.902;8.162;2024-01-27T06:06:34;93493.78;;;3.97;100.00
7660;BME280;3872;47.902;8.162;2024-01-27T06:09:07;93483.81;;;4.12;100.00
7660;BME280;3872;47.902;8.162;2024-01-27T06:11:37;93480.88;;;3.84;100.00
7660;BME280;3872;47.902;8.162;2024-01-27T06:14:13;93482.94;;;4.00;100.00
7660;BME280;3872;47.902;8.162;2024-01-27T06:16:42;93478.09;;;4.04;100.00
7660;BME280;3872;47.902;8.162;2024-01-27T06:19:12;93478.31;;;3.77;100.00
7660;BME280;3872;47.902;8.162;2024-01-27T06:21:47;93473.78;;;3.91;100.00
7660;BME280;3872;47.902;8.162;2024-01-27T06:24:17;93476.53;;;2.84;100.00
7660;BME280;3872;47.902;8.162;2024-01-27T06:26:53;93480.78;;;2.71;100.00
7660;BME280;3872;47.902;8.162;2024-01-27T06:29:26;93486.47;;;3.31;100.00
7660;BME280;3872;47.902;8.162;2024-01-27T06:32:01;93491.94;;;3.54;100.00
7660;BME280;3872;47.902;8.162;2024-01-27T06:34:31;93490.47;;;3.27;100.00
7660;BME280;3872;47.902;8.162;2024-01-27T06:36:59;93495.31;;;3.24;100.00
7660;BME280;3872;47.902;8.162;2024-01-27T06:39:26;93503.16;;;3.48;100.00
7660;BME280;3872;47.902;8.162;2024-01-27T06:41:57;93497.34;;;3.53;100.00
7660;BME280;3872;47.902;8.162;2024-01-27T06:44:29;93507.75;;;3.78;100.00
7660;BME280;3872;47.902;8.162;2024-01-27T06:47:01;93504.81;;;3.11;100.00
7660;BME280;3872;47.902;8.162;2024-01-27T06:49:40;93500.88;;;3.34;100.00
7660;BME280;3872;47.902;8.162;2024-01-27T06:52:07;93505.31;;;3.27;100.00
7660;BME280;3872;47.902;8.162;2024-01-27T06:54:36;93503.47;;;3.90;100.00
7660;BME280;3872;47.902;8.162;2024-01-27T06:57:17;93500.19;;;3.76;100.00
7660;BME280;3872;47.902;8.162;2024-01-27T06:59:50;93495.38;;;3.17;100.00
7660;BME280;3872;47.902;8.162;2024-01-27T07:02:27;93491.38;;;3.71;100.00
7660;BME280;3872;47.902;8.162;2024-01-27T07:05:00;93491.97;;;3.73;100.00
7660;BME280;3872;47.902;8.162;2024-01-27T07:07:29;93492.94;;;3.78;100.00
7660;BME280;3872;47.902;8.162;2024-01-27T07:10:06;93492.44;;;3.63;100.00
7660;BME280;3872;47.902;8.162;2024-01-27T07:12:37;93493.50;;;3.55;100.00
7660;BME280;3872;47.902;8.162;2024-01-27T07:15:05;93495.25;;;2.99;100.00
7660;BME280;3872;47.902;8.162;2024-01-27T07:17:36;93496.19;;;3.42;100.00
7660;BME280;3872;47.902;8.162;2024-01-27T07:20:07;93491.09;;;3.61;100.00
7660;BME280;3872;47.902;8.162;2024-01-27T07:22:38;93490.91;;;3.55;100.00
7660;BME280;3872;47.902;8.162;2024-01-27T07:25:06;93488.16;;;3.19;100.00
7660;BME280;3872;47.902;8.162;2024-01-27T07:27:36;93487.13;;;3.27;100.00
7660;BME280;3872;47.902;8.162;2024-01-27T07:30:10;93487.28;;;3.32;100.00
7660;BME280;3872;47.902;8.162;2024-01-27T07:32:39;93494.69;;;3.60;100.00
7660;BME280;3872;47.902;8.162;2024-01-27T07:35:08;93503.94;;;3.24;100.00
7660;BME280;3872;47.902;8.162;2024-01-27T07:37:40;93510.72;;;3.57;100.00
7660;BME280;3872;47.902;8.162;2024-01-27T07:40:14;93517.84;;;3.92;100.00
7660;BME280;3872;47.902;8.162;2024-01-27T07:42:41;93527.16;;;3.82;100.00
7660;BME280;3872;47.902;8.162;2024-01-27T07:45:11;93517.38;;;3.77;100.00
7660;BME280;3872;47.902;8.162;2024-01-27T07:47:48;93507.25;;;3.38;100.00
7660;BME280;3872;47.902;8.162;2024-01-27T07:50:21;93505.31;;;3.58;100.00
7660;BME280;3872;47.902;8.162;2024-01-27T07:52:54;93497.94;;;3.80;100.00
7660;BME280;3872;47.902;8.162;2024-01-27T07:55:29;93500.47;;;3.86;100.00
7660;BME280;3872;47.902;8.162;2024-01-27T07:57:59;93508.25;;;3.68;100.00
7660;BME280;3872;47.902;8.162;2024-01-27T08:00:32;93510.13;;;2.08;100.00
7660;BME280;3872;47.902;8.162;2024-01-27T08:03:04;93497.03;;;2.60;100.00
7660;BME280;3872;47.902;8.162;2024-01-27T08:05:32;93493.94;;;3.21;100.00
7660;BME280;3872;47.902;8.162;2024-01-27T08:08:04;93490.16;;;3.48;100.00
7660;BME280;3872;47.902;8.162;2024-01-27T08:10:40;93493.88;;;3.28;100.00
7660;BME280;3872;47.902;8.162;2024-01-27T08:13:10;93499.63;;;3.68;100.00
7660;BME280;3872;47.902;8.162;2024-01-27T08:15:46;93504.94;;;3.54;100.00
7660;BME280;3872;47.902;8.162;2024-01-27T08:18:21;93504.91;;;3.61;100.00
7660;BME280;3872;47.902;8.162;2024-01-27T08:20:51;93506.69;;;3.85;100.00
7660;BME280;3872;47.902;8.162;2024-01-27T08:23:19;93506.03;;;3.40;100.00
7660;BME280;3872;47.902;8.162;2024-01-27T08:25:56;93513.19;;;3.76;100.00
7660;BME280;3872;47.902;8.162;2024-01-27T08:28:26;93501.22;;;3.93;100.00
7660;BME280;3872;47.902;8.162;2024-01-27T08:30:56;93495.44;;;3.67;100.00
7660;BME280;3872;47.902;8.162;2024-01-27T08:33:27;93500.63;;;3.91;100.00
7660;BME280;3872;47.902;8.162;2024-01-27T08:36:00;93505.75;;;4.05;100.00
7660;BME280;3872;47.902;8.162;2024-01-27T08:38:28;93509.84;;;3.94;100.00
7660;BME280;3872;47.902;8.162;2024-01-27T08:40:59;93505.72;;;4.29;96.87
7660;BME280;3872;47.902;8.162;2024-01-27T08:43:26;93509.13;;;4.05;100.00
7660;BME280;3872;47.902;8.162;2024-01-27T08:45:57;93499.84;;;4.34;100.00
7660;BME280;3872;47.902;8.162;2024-01-27T08:48:29;93503.34;;;4.46;97.90
7660;BME280;3872;47.902;8.162;2024-01-27T08:50:59;93501.28;;;3.87;100.00
7660;BME280;3872;47.902;8.162;2024-01-27T08:53:30;93500.22;;;4.56;98.99
7660;BME280;3872;47.902;8.162;2024-01-27T08:55:57;93501.88;;;4.32;94.97
7660;BME280;3872;47.902;8.162;2024-01-27T08:58:31;93504.56;;;4.44;100.00
7660;BME280;3872;47.902;8.162;2024-01-27T09:01:03;93505.59;;;4.61;99.08
7660;BME280;3872;47.902;8.162;2024-01-27T09:03:40;93508.75;;;4.63;98.72
7660;BME280;3872;47.902;8.162;2024-01-27T09:06:14;93513.84;;;4.94;97.27
7660;BME280;3872;47.902;8.162;2024-01-27T09:08:51;93509.13;;;5.03;96.06
7660;BME280;3872;47.902;8.162;2024-01-27T09:11:21;93515.28;;;4.90;98.42
7660;BME280;3872;47.902;8.162;2024-01-27T09:13:49;93519.41;;;4.98;95.70
7660;BME280;3872;47.902;8.162;2024-01-27T09:16:17;93517.38;;;5.18;95.57
7660;BME280;3872;47.902;8.162;2024-01-27T09:18:49;93521.66;;;5.42;91.86
7660;BME280;3872;47.902;8.162;2024-01-27T09:21:23;93516.81;;;5.58;90.16
7660;BME280;3872;47.902;8.162;2024-01-27T09:23:56;93511.81;;;5.98;91.30
7660;BME280;3872;47.902;8.162;2024-01-27T09:26:24;93508.44;;;6.20;89.19
7660;BME280;3872;47.902;8.162;2024-01-27T09:28:54;93505.53;;;5.87;88.54
7660;BME280;3872;47.902;8.162;2024-01-27T09:31:29;93501.03;;;5.94;92.21
7660;BME280;3872;47.902;8.162;2024-01-27T09:34:01;93510.22;;;5.55;97.80
7660;BME280;3872;47.902;8.162;2024-01-27T09:36:31;93504.56;;;5.58;96.69
7660;BME280;3872;47.902;8.162;2024-01-27T09:38:59;93508.78;;;6.36;86.70
7660;BME280;3872;47.902;8.162;2024-01-27T09:41:31;93507.53;;;6.03;91.63
7660;BME280;3872;47.902;8.162;2024-01-27T09:44:03;93506.84;;;6.43;86.77
7660;BME280;3872;47.902;8.162;2024-01-27T09:46:38;93504.53;;;7.21;82.40
7660;BME280;3872;47.902;8.162;2024-01-27T09:49:17;93499.88;;;6.72;87.38
7660;BME280;3872;47.902;8.162;2024-01-27T09:51:53;93483.31;;;7.34;81.19
7660;BME280;3872;47.902;8.162;2024-01-27T09:54:31;93492.31;;;7.55;82.96
7660;BME280;3872;47.902;8.162;2024-01-27T09:57:00;93490.44;;;7.84;69.59
7660;BME280;3872;47.902;8.162;2024-01-27T09:59:34;93489.00;;;7.60;72.64
7660;BME280;3872;47.902;8.162;2024-01-27T10:02:06;93492.53;;;7.99;71.00
7660;BME280;3872;47.902;8.162;2024-01-27T10:04:41;93491.44;;;8.45;66.71
7660;BME280;3872;47.902;8.162;2024-01-27T10:07:09;93487.44;;;8.42;67.24
7660;BME280;3872;47.902;8.162;2024-01-27T10:09:36;93481.47;;;8.47;68.18
7660;BME280;3872;47.902;8.162;2024-01-27T10:12:10;93489.84;;;7.94;75.61
7660;BME280;3872;47.902;8.162;2024-01-27T10:14:45;93483.03;;;8.64;73.73
7660;BME280;3872;47.902;8.162;2024-01-27T10:17:25;93483.34;;;8.90;72.18
7660;BME280;3872;47.902;8.162;2024-01-27T10:20:02;93485.09;;;9.50;67.41
7660;BME280;3872;47.902;8.162;2024-01-27T10:22:39;93483.66;;;9.37;69.79
7660;BME280;3872;47.902;8.162;2024-01-27T10:25:12;93486.13;;;9.49;71.64
7660;BME280;3872;47.902;8.162;2024-01-27T10:27:42;93490.63;;;9.04;69.43
7660;BME280;3872;47.902;8.162;2024-01-27T10:30:20;93478.69;;;9.67;67.61
7660;BME280;3872;47.902;8.162;2024-01-27T10:32:58;93476.97;;;10.10;68.24
7660;BME280;3872;47.902;8.162;2024-01-27T10:35:27;93477.72;;;10.05;68.35
7660;BME280;3872;47.902;8.162;2024-01-27T10:37:55;93454.34;;;10.46;64.21
7660;BME280;3872;47.902;8.162;2024-01-27T10:40:28;93457.41;;;10.28;65.87
7660;BME280;3872;47.902;8.162;2024-01-27T10:43:06;93446.38;;;10.78;68.68
7660;BME280;3872;47.902;8.162;2024-01-27T10:45:37;93437.03;;;11.07;65.52
7660;BME280;3872;47.902;8.162;2024-01-27T10:48:07;93437.53;;;11.09;66.75
7660;BME280;3872;47.902;8.162;2024-01-27T10:50:39;93442.13;;;11.34;63.96
7660;BME280;3872;47.902;8.162;2024-01-27T10:53:09;93437.13;;;11.43;64.51
7660;BME280;3872;47.902;8.162;2024-01-27T10:55:45;93435.09;;;11.95;61.64
7660;BME280;3872;47.902;8.162;2024-01-27T10:58:20;93441.97;;;11.86;59.46
7660;BME280;3872;47.902;8.162;2024-01-27T11:00:48;93437.13;;;11.43;65.05
7660;BME280;3872;47.902;8.162;2024-01-27T11:03:25;93438.28;;;11.97;61.54
7660;BME280;3872;47.902;8.162;2024-01-27T11:05:59;93443.81;;;11.96;62.42
7660;BME280;3872;47.902;8.162;2024-01-27T11:08:36;93433.19;;;12.62;61.08
7660;BME280;3872;47.902;8.162;2024-01-27T11:11:12;93430.38;;;12.07;57.81
7660;BME280;3872;47.902;8.162;2024-01-27T11:13:42;93428.47;;;11.62;62.04
7660;BME280;3872;47.902;8.162;2024-01-27T11:16:21;93429.78;;;12.46;57.49
7660;BME280;3872;47.902;8.162;2024-01-27T11:18:50;93430.38;;;12.07;61.55
7660;BME280;3872;47.902;8.162;2024-01-27T11:21:27;93433.00;;;12.02;61.44
7660;BME280;3872;47.902;8.162;2024-01-27T11:24:12;93425.16;;;13.02;61.09
7660;BME280;3872;47.902;8.162;2024-01-27T11:26:43;93422.66;;;12.51;61.10
7660;BME280;3872;47.902;8.162;2024-01-27T11:29:11;93424.19;;;12.73;60.41
7660;BME280;3872;47.902;8.162;2024-01-27T11:31:56;93416.63;;;13.25;59.93
7660;BME280;3872;47.902;8.162;2024-01-27T11:34:25;93406.19;;;13.49;58.71
7660;BME280;3872;47.902;8.162;2024-01-27T11:36:55;93397.38;;;13.59;59.49
7660;BME280;3872;47.902;8.162;2024-01-27T11:39:29;93392.03;;;14.03;57.63
7660;BME280;3872;47.902;8.162;2024-01-27T11:42:06;93393.84;;;13.73;54.19
7660;BME280;3872;47.902;8.162;2024-01-27T11:44:36;93387.97;;;14.44;56.17
7660;BME280;3872;47.902;8.162;2024-01-27T11:47:14;93397.00;;;12.67;57.85
7660;BME280;3872;47.902;8.162;2024-01-27T11:49:54;93391.44;;;14.69;52.73
7660;BME280;3872;47.902;8.162;2024-01-27T11:52:40;93380.00;;;14.97;52.15
7660;BME280;3872;47.902;8.162;2024-01-27T11:55:11;93377.34;;;14.97;52.14
7660;BME280;3872;47.902;8.162;2024-01-27T11:57:41;93383.47;;;14.45;52.43
7660;BME280;3872;47.902;8.162;2024-01-27T12:00:18;93384.66;;;14.58;52.85
7660;BME280;3872;47.902;8.162;2024-01-27T12:02:50;93393.91;;;15.08;53.25
7660;BME280;3872;47.902;8.162;2024-01-27T12:05:20;93388.25;;;15.14;48.96
7660;BME280;3872;47.902;8.162;2024-01-27T12:07:51;93388.13;;;15.99;50.05
7660;BME280;3872;47.902;8.162;2024-01-27T12:10:19;93383.81;;;16.36;49.87
7660;BME280;3872;47.902;8.162;2024-01-27T12:12:50;93393.03;;;15.92;48.32
7660;BME280;3872;47.902;8.162;2024-01-27T12:15:20;93384.00;;;15.75;49.91
7660;BME280;3872;47.902;8.162;2024-01-27T12:17:53;93385.81;;;15.18;49.23
7660;BME280;3872;47.902;8.162;2024-01-27T12:20:25;93381.06;;;15.57;50.68
7660;BME280;3872;47.902;8.162;2024-01-27T12:23:03;93379.50;;;16.08;47.05
7660;BME280;3872;47.902;8.162;2024-01-27T12:25:31;93365.22;;;16.36;48.66
7660;BME280;3872;47.902;8.162;2024-01-27T12:28:08;93367.50;;;16.42;47.66
7660;BME280;3872;47.902;8.162;2024-01-27T12:30:44;93361.88;;;16.44;46.30
7660;BME280;3872;47.902;8.162;2024-01-27T12:33:19;93368.84;;;16.26;48.61
7660;BME280;3872;47.902;8.162;2024-01-27T12:35:50;93367.50;;;16.42;47.63
7660;BME280;3872;47.902;8.162;2024-01-27T12:38:32;93363.47;;;16.45;48.28
7660;BME280;3872;47.902;8.162;2024-01-27T12:41:02;93358.88;;;17.05;45.12
7660;BME280;3872;47.902;8.162;2024-01-27T12:43:29;93353.81;;;16.49;45.43
7660;BME280;3872;47.902;8.162;2024-01-27T12:45:59;93357.25;;;16.36;45.62
7660;BME280;3872;47.902;8.162;2024-01-27T12:48:31;93359.88;;;16.96;48.19
7660;BME280;3872;47.902;8.162;2024-01-27T12:51:05;93352.94;;;17.36;46.01
7660;BME280;3872;47.902;8.162;2024-01-27T12:53:38;93351.53;;;16.29;45.60
7660;BME280;3872;47.902;8.162;2024-01-27T12:56:12;93350.44;;;16.76;45.82
7660;BME280;3872;47.902;8.162;2024-01-27T12:58:47;93348.66;;;16.85;46.14
7660;BME280;3872;47.902;8.162;2024-01-27T13:01:20;93341.16;;;17.01;42.93
7660;BME280;3872;47.902;8.162;2024-01-27T13:03:49;93348.75;;;17.07;42.31
7660;BME280;3872;47.902;8.162;2024-01-27T13:06:20;93341.50;;;16.26;45.98
7660;BME280;3872;47.902;8.162;2024-01-27T13:08:50;93343.09;;;16.27;42.88
7660;BME280;3872;47.902;8.162;2024-01-27T13:11:19;93335.72;;;16.51;44.72
7660;BME280;3872;47.902;8.162;2024-01-27T13:13:47;93326.81;;;17.38;42.94
7660;BME280;3872;47.902;8.162;2024-01-27T13:16:14;93328.56;;;17.42;44.36
7660;BME280;3872;47.902;8.162;2024-01-27T13:18:44;93329.94;;;16.63;44.86
7660;BME280;3872;47.902;8.162;2024-01-27T13:21:20;93322.41;;;17.55;43.25
7660;BME280;3872;47.902;8.162;2024-01-27T13:23:49;93323.91;;;14.66;40.08
7660;BME280;3872;47.902;8.162;2024-01-27T13:26:19;93321.66;;;17.19;42.93
7660;BME280;3872;47.902;8.162;2024-01-27T13:28:47;93324.69;;;18.07;37.22
7660;BME280;3872;47.902;8.162;2024-01-27T13:31:17;93324.47;;;17.58;41.75
7660;BME280;3872;47.902;8.162;2024-01-27T13:33:45;93321.72;;;18.08;38.84
7660;BME280;3872;47.902;8.162;2024-01-27T13:36:15;93315.00;;;18.42;38.44
7660;BME280;3872;47.902;8.162;2024-01-27T13:38:43;93318.78;;;17.87;40.18
7660;BME280;3872;47.902;8.162;2024-01-27T13:41:17;93311.28;;;18.51;39.61
7660;BME280;3872;47.902;8.162;2024-01-27T13:43:56;93319.06;;;18.08;40.81
7660;BME280;3872;47.902;8.162;2024-01-27T13:46:31;93318.56;;;18.06;40.19
7660;BME280;3872;47.902;8.162;2024-01-27T13:49:07;93314.63;;;18.26;41.74
7660;BME280;3872;47.902;8.162;2024-01-27T13:51:37;93311.50;;;17.43;39.62